createdAt,value
2018-06-30T00:01:30.112Z,5.97
2018-06-30T00:06:32.731Z,5.80
2018-06-30T00:11:35.243Z,8.07
2018-06-30T00:16:37.800Z,7.10
2018-06-30T00:21:40.336Z,7.67
2018-06-30T00:26:42.901Z,6.77
2018-06-30T00:31:45.495Z,7.63
2018-06-30T00:36:48.016Z,7.83
2018-06-30T00:41:50.591Z,7.63
2018-06-30T00:46:53.196Z,6.10
2018-06-30T00:51:55.798Z,7.50
2018-06-30T00:56:58.397Z,8.47
2018-06-30T01:02:00.999Z,8.57
2018-06-30T01:07:03.596Z,7.50
2018-06-30T01:12:06.201Z,10.60
2018-06-30T01:17:08.720Z,6.57
2018-06-30T01:22:11.291Z,5.93
2018-06-30T01:27:13.891Z,6.20
2018-06-30T01:32:16.799Z,6.53
2018-06-30T01:37:19.320Z,8.17
2018-06-30T01:42:21.844Z,11.43
2018-06-30T01:47:24.391Z,6.47
2018-06-30T01:52:26.911Z,5.00
2018-06-30T01:57:29.428Z,5.03
2018-06-30T02:02:31.954Z,6.47
2018-06-30T02:07:34.460Z,6.33
2018-06-30T02:12:36.976Z,9.70
2018-06-30T02:17:39.592Z,9.20
2018-06-30T02:22:42.183Z,6.90
2018-06-30T02:27:44.795Z,7.67
2018-06-30T02:32:48.104Z,7.13
2018-06-30T02:37:50.703Z,5.50
2018-06-30T02:42:53.214Z,7.17
2018-06-30T02:47:55.799Z,5.90
2018-06-30T02:52:59.016Z,6.47
2018-06-30T02:58:01.537Z,7.40
2018-06-30T03:03:04.117Z,7.80
2018-06-30T03:08:06.777Z,4.63
2018-06-30T03:13:09.316Z,6.70
2018-06-30T03:18:11.923Z,5.17
2018-06-30T03:23:14.530Z,9.23
2018-06-30T03:28:17.131Z,5.80
2018-06-30T03:33:19.672Z,5.30
2018-06-30T03:38:22.273Z,5.40
2018-06-30T03:43:24.783Z,10.30
2018-06-30T03:48:27.407Z,5.97
2018-06-30T03:53:29.924Z,6.30
2018-06-30T03:58:32.443Z,8.33
2018-06-30T04:03:34.968Z,6.67
2018-06-30T04:08:38.061Z,5.40
2018-06-30T04:13:41.323Z,6.50
2018-06-30T04:18:47.023Z,5.30
2018-06-30T04:23:50.422Z,6.10
2018-06-30T04:28:54.193Z,5.70
2018-06-30T04:33:57.148Z,8.07
2018-06-30T04:38:59.853Z,6.80
2018-06-30T04:44:02.758Z,6.93
2018-06-30T04:49:08.147Z,6.63
2018-06-30T04:54:10.681Z,5.60
2018-06-30T04:59:13.837Z,6.00
2018-06-30T05:04:17.547Z,8.80
2018-06-30T05:09:20.728Z,5.47
2018-06-30T05:14:27.433Z,5.63
2018-06-30T05:19:32.673Z,7.33
2018-06-30T05:24:36.914Z,5.40
2018-06-30T05:29:39.609Z,6.03
2018-06-30T05:34:42.606Z,6.47
2018-06-30T05:39:45.547Z,7.47
2018-06-30T05:44:48.095Z,5.73
2018-06-30T05:49:51.395Z,9.47
2018-06-30T05:54:54.360Z,5.27
2018-06-30T05:59:57.016Z,6.90
2018-06-30T06:04:59.924Z,4.10
2018-06-30T06:10:03.788Z,4.43
2018-06-30T06:15:07.025Z,5.57
2018-06-30T06:20:09.561Z,5.80
2018-06-30T06:25:12.039Z,10.53
2018-06-30T06:30:14.684Z,3.80
2018-06-30T06:35:17.199Z,3.87
2018-06-30T06:40:19.759Z,4.80
2018-06-30T06:45:22.609Z,4.03
2018-06-30T06:50:25.166Z,3.53
2018-06-30T06:55:27.675Z,4.87
2018-06-30T07:00:30.222Z,5.00
2018-06-30T07:05:32.723Z,4.10
2018-06-30T07:10:35.264Z,4.10
2018-06-30T07:15:37.808Z,4.33
2018-06-30T07:20:40.755Z,4.03
2018-06-30T07:25:43.367Z,6.00
2018-06-30T07:30:45.984Z,3.37
2018-06-30T07:35:48.585Z,5.23
2018-06-30T07:40:51.071Z,4.03
2018-06-30T07:45:53.595Z,5.13
2018-06-30T07:50:56.113Z,4.20
2018-06-30T07:55:59.331Z,4.33
2018-06-30T08:01:03.180Z,4.57
2018-06-30T08:06:05.696Z,6.03
2018-06-30T08:11:08.214Z,3.90
2018-06-30T08:16:10.727Z,4.50
2018-06-30T08:21:13.301Z,9.43
2018-06-30T08:26:15.772Z,4.40
2018-06-30T08:31:18.779Z,5.13
2018-06-30T08:36:23.343Z,13.70
2018-06-30T08:41:26.318Z,6.17
2018-06-30T08:46:29.904Z,7.17
2018-06-30T08:51:33.353Z,6.80
2018-06-30T08:56:36.396Z,7.17
2018-06-30T09:01:40.077Z,7.10
2018-06-30T09:06:43.344Z,8.93
2018-06-30T09:11:48.391Z,10.73
2018-06-30T09:16:50.938Z,10.70
2018-06-30T09:21:53.448Z,8.00
2018-06-30T09:26:55.964Z,10.80
2018-06-30T09:31:59.243Z,8.70
2018-06-30T09:37:01.778Z,13.83
2018-06-30T09:42:06.044Z,7.53
2018-06-30T09:47:09.458Z,7.37
2018-06-30T09:52:12.091Z,8.20
2018-06-30T09:57:14.900Z,9.30
2018-06-30T10:02:18.362Z,8.10
2018-06-30T10:07:21.431Z,8.10
2018-06-30T10:12:24.095Z,9.90
2018-06-30T10:17:26.950Z,9.93
2018-06-30T10:22:30.312Z,8.30
2018-06-30T10:27:34.094Z,7.43
2018-06-30T10:32:36.813Z,6.10
2018-06-30T10:37:39.352Z,6.10
2018-06-30T10:42:41.868Z,9.33
2018-06-30T10:47:44.379Z,5.00
2018-06-30T10:52:46.893Z,4.97
2018-06-30T10:57:49.404Z,4.07
2018-06-30T11:02:51.920Z,5.40
2018-06-30T11:07:54.440Z,4.90
2018-06-30T11:12:56.957Z,4.80
2018-06-30T11:17:59.492Z,4.67
2018-06-30T11:23:02.016Z,4.13
2018-06-30T11:28:05.300Z,3.80
2018-06-30T11:33:07.816Z,3.87
2018-06-30T11:38:11.096Z,3.33
2018-06-30T11:43:13.616Z,4.20
2018-06-30T11:48:16.147Z,4.03
2018-06-30T11:53:19.437Z,4.70
2018-06-30T11:58:21.942Z,4.10
2018-06-30T12:03:25.280Z,3.37
2018-06-30T12:08:27.744Z,2.60
2018-06-30T12:13:30.251Z,3.40
2018-06-30T12:18:32.771Z,2.40
2018-06-30T12:23:35.290Z,2.87
2018-06-30T12:28:37.803Z,2.07
2018-06-30T12:33:40.347Z,3.40
2018-06-30T12:38:43.632Z,2.80
2018-06-30T12:43:46.148Z,2.07
2018-06-30T12:48:48.663Z,2.37
2018-06-30T12:53:51.945Z,3.20
2018-06-30T12:58:54.468Z,2.07
2018-06-30T13:03:56.989Z,1.80
2018-06-30T13:08:59.503Z,1.60
2018-06-30T13:14:02.070Z,1.43
2018-06-30T13:19:04.576Z,1.43
2018-06-30T13:24:07.859Z,1.00
2018-06-30T13:29:10.401Z,2.53
2018-06-30T13:34:12.936Z,1.57
2018-06-30T13:39:15.632Z,1.50
2018-06-30T13:44:18.143Z,1.07
2018-06-30T13:49:20.672Z,1.43
2018-06-30T13:54:23.191Z,2.30
2018-06-30T13:59:25.715Z,0.80
2018-06-30T14:04:28.231Z,0.90
2018-06-30T14:09:30.735Z,1.20
2018-06-30T14:14:33.265Z,0.80
2018-06-30T14:19:35.772Z,1.00
2018-06-30T14:24:38.289Z,1.23
2018-06-30T14:29:40.828Z,1.13
2018-06-30T14:34:43.359Z,0.93
2018-06-30T14:39:46.100Z,1.20
2018-06-30T14:44:48.615Z,1.60
2018-06-30T14:49:51.140Z,0.80
2018-06-30T14:54:53.667Z,0.90
2018-06-30T14:59:56.203Z,1.50
2018-06-30T15:04:58.720Z,1.27
2018-06-30T15:10:01.239Z,0.60
2018-06-30T15:15:03.762Z,0.67
2018-06-30T15:20:06.277Z,0.67
2018-06-30T15:25:08.796Z,0.70
2018-06-30T15:35:06.052Z,0.97
2018-06-30T15:40:08.575Z,0.80
2018-06-30T15:45:11.851Z,1.47
2018-06-30T15:50:14.363Z,0.90
2018-06-30T15:55:16.882Z,0.60
2018-06-30T16:00:20.233Z,1.17
2018-06-30T16:05:22.896Z,1.23
2018-06-30T16:10:25.355Z,0.60
2018-06-30T16:15:27.923Z,3.13
2018-06-30T16:20:30.448Z,0.50
2018-06-30T16:25:32.964Z,1.10
2018-06-30T16:30:35.603Z,0.60
2018-06-30T16:35:38.884Z,1.83
2018-06-30T16:40:41.411Z,1.00
2018-06-30T16:45:43.923Z,2.00
2018-06-30T16:50:46.439Z,0.80
2018-06-30T16:55:48.997Z,0.53
2018-06-30T17:00:51.509Z,3.23
2018-06-30T17:05:54.803Z,0.50
2018-06-30T17:10:57.351Z,0.50
2018-06-30T17:15:59.898Z,0.50
2018-06-30T17:21:02.412Z,0.60
2018-06-30T17:26:05.985Z,1.40
2018-06-30T17:31:09.219Z,0.77
2018-06-30T17:36:11.748Z,0.70
2018-06-30T17:41:14.260Z,2.40
2018-06-30T17:46:16.784Z,2.07
2018-06-30T17:51:19.341Z,2.50
2018-06-30T17:56:22.044Z,1.53
2018-06-30T18:01:24.653Z,1.03
2018-06-30T18:06:27.166Z,1.07
2018-06-30T18:11:29.680Z,0.80
2018-06-30T18:16:32.225Z,2.13
2018-06-30T18:21:34.747Z,0.80
2018-06-30T18:26:37.270Z,1.23
2018-06-30T18:31:39.791Z,1.07
2018-06-30T18:36:42.781Z,0.77
2018-06-30T18:41:45.327Z,0.80
2018-06-30T18:46:47.910Z,0.90
2018-06-30T18:51:50.541Z,0.80
2018-06-30T18:56:53.067Z,0.83
2018-06-30T19:01:55.602Z,2.37
2018-06-30T19:06:58.123Z,1.80
2018-06-30T19:12:01.046Z,0.50
2018-06-30T19:17:03.568Z,0.60
2018-06-30T19:22:06.302Z,1.83
2018-06-30T19:27:08.808Z,0.70
2018-06-30T19:32:11.328Z,1.13
2018-06-30T19:37:13.846Z,1.10
2018-06-30T19:42:17.175Z,0.90
2018-06-30T19:47:19.651Z,1.13
2018-06-30T19:52:22.184Z,0.67
2018-06-30T19:57:24.759Z,0.60
2018-06-30T20:02:27.353Z,3.70
2018-06-30T20:07:29.856Z,0.67
2018-06-30T20:12:32.400Z,0.60
2018-06-30T20:17:34.920Z,1.27
2018-06-30T20:27:41.681Z,0.93
2018-06-30T20:32:44.959Z,0.80
2018-06-30T20:37:47.475Z,0.60
2018-06-30T20:42:49.993Z,0.90
2018-06-30T20:47:52.593Z,0.60
2018-06-30T20:52:55.109Z,0.77
2018-06-30T20:57:57.632Z,0.80
2018-06-30T21:03:00.331Z,1.70
2018-06-30T21:08:02.894Z,1.30
2018-06-30T21:13:05.423Z,0.70
2018-06-30T21:18:07.948Z,1.13
2018-06-30T21:23:10.486Z,1.93
2018-06-30T21:28:12.995Z,1.57
2018-06-30T21:33:15.519Z,1.20
2018-06-30T21:38:18.036Z,1.53
2018-06-30T21:43:20.551Z,2.93
2018-06-30T21:48:23.074Z,1.50
2018-06-30T21:53:25.592Z,1.93
2018-06-30T21:58:28.116Z,2.60
2018-06-30T22:03:30.643Z,2.47
2018-06-30T22:08:33.216Z,1.50
2018-06-30T22:13:35.732Z,1.70
2018-06-30T22:18:38.277Z,1.10
2018-06-30T22:23:40.768Z,0.90
2018-06-30T22:28:43.292Z,2.40
2018-06-30T22:33:45.807Z,2.97
2018-06-30T22:38:48.323Z,0.80
2018-06-30T22:43:50.844Z,0.87
2018-06-30T22:48:53.367Z,1.77
2018-06-30T22:53:55.876Z,1.57
2018-06-30T22:58:58.393Z,0.80
2018-06-30T23:04:00.911Z,2.50
2018-06-30T23:09:03.423Z,1.67
2018-06-30T23:14:05.947Z,0.77
2018-06-30T23:19:08.468Z,1.67
2018-06-30T23:24:10.995Z,1.23
2018-06-30T23:29:13.527Z,0.83
2018-06-30T23:34:16.040Z,1.37
2018-06-30T23:39:18.555Z,1.13
2018-06-30T23:44:21.072Z,0.70
2018-06-30T23:49:23.605Z,2.50
2018-06-30T23:54:26.131Z,0.83
2018-06-30T23:59:28.649Z,1.57
